Time;durP1;ratioP1;P1;durP2;ratioP2;P2;SDS_P1;SDS_P2;PMS_P1;PMS_P2;Temp;Humidity;BMP_temperature;BMP_pressure;BME280_temperature;BME280_humidity;BME280_pressure;Samples;Min_cycle;Max_cycle;Signal;HPM_P1;HPM_P2
2023/08/23 00:02:07;;;;;;;;;;;21.30;79.80;;;;;;4989170;28;19934;-76
2023/08/23 00:04:35;;;;;;;;;;;21.30;79.80;;;;;;4989646;28;21929;-76
2023/08/23 00:07:04;;;;;;;;;;;21.30;79.80;;;;;;4989580;28;20016;-76
2023/08/23 00:09:31;;;;;;;;;;;21.20;79.90;;;;;;4989029;28;19937;-76
2023/08/23 00:11:58;;;;;;;;;;;21.20;79.90;;;;;;4987881;28;19930;-76
2023/08/23 00:14:25;;;;;;;;;;;21.20;80.00;;;;;;4989544;28;19937;-76
2023/08/23 00:16:52;;;;;;;;;;;21.20;80.10;;;;;;4989408;28;20294;-76
2023/08/23 00:19:19;;;;;;;;;;;21.20;80.00;;;;;;4989842;28;19940;-77
2023/08/23 00:21:45;;;;;;;;;;;21.10;79.90;;;;;;4990279;28;19925;-78
2023/08/23 00:24:14;;;;;;;;;;;21.10;80.00;;;;;;4988632;28;19965;-76
2023/08/23 00:26:41;;;;;;;;;;;21.10;80.00;;;;;;4988499;28;20037;-77
2023/08/23 00:29:08;;;;;;;;;;;20.90;80.10;;;;;;4972235;28;20301;-76
2023/08/23 00:31:35;;;;;;;;;;;20.90;80.20;;;;;;4989898;28;19933;-76
2023/08/23 00:34:02;;;;;;;;;;;21.00;80.10;;;;;;4978967;28;19937;-76
2023/08/23 00:36:29;;;;;;;;;;;21.00;80.00;;;;;;4989173;28;20305;-78
2023/08/23 00:38:57;;;;;;;;;;;20.90;80.10;;;;;;4988518;28;19932;-77
2023/08/23 00:41:26;;;;;;;;;;;20.90;80.10;;;;;;4978155;28;19926;-76
2023/08/23 00:43:54;;;;;;;;;;;20.80;80.20;;;;;;4988468;28;19925;-76
2023/08/23 00:46:22;;;;;;;;;;;20.80;80.30;;;;;;4978643;28;19929;-76
2023/08/23 00:48:50;;;;;;;;;;;20.80;80.20;;;;;;4990586;28;19926;-76
2023/08/23 00:51:17;;;;;;;;;;;20.90;80.20;;;;;;4989138;28;19952;-78
2023/08/23 00:53:44;;;;;;;;;;;20.80;80.20;;;;;;4988783;28;19985;-76
2023/08/23 00:56:12;;;;;;;;;;;20.70;80.20;;;;;;4989723;28;20416;-76
2023/08/23 00:58:40;;;;;;;;;;;20.70;80.20;;;;;;4989273;28;21815;-76
2023/08/23 01:01:07;;;;;;;;;;;20.70;80.20;;;;;;4989349;28;19930;-77
2023/08/23 01:03:34;;;;;;;;;;;20.60;80.30;;;;;;4988645;28;19936;-76
2023/08/23 01:06:07;;;;;;;;;;;20.60;80.30;;;;;;4989174;28;20389;-77
2023/08/23 01:08:39;;;;;;;;;;;20.60;80.40;;;;;;4989018;28;20048;-78
2023/08/23 01:11:11;;;;;;;;;;;20.60;80.40;;;;;;4991623;28;20367;-71
2023/08/23 01:13:44;;;;;;;;;;;20.60;80.40;;;;;;4991631;28;19925;-70
2023/08/23 01:16:11;;;;;;;;;;;20.60;80.50;;;;;;4991935;28;20350;-69
2023/08/23 01:18:38;;;;;;;;;;;20.50;80.70;;;;;;4991328;28;20369;-70
2023/08/23 01:21:07;;;;;;;;;;;20.40;80.70;;;;;;4991197;28;19930;-69
2023/08/23 01:23:37;;;;;;;;;;;20.40;80.80;;;;;;5006302;28;19977;-69
2023/08/23 01:26:04;;;;;;;;;;;20.40;80.90;;;;;;4991484;28;19940;-69
2023/08/23 01:28:31;;;;;;;;;;;20.40;80.80;;;;;;4992610;28;19937;-69
2023/08/23 01:30:59;;;;;;;;;;;20.30;80.80;;;;;;4991737;28;19933;-69
2023/08/23 01:33:28;;;;;;;;;;;20.30;80.90;;;;;;4990311;28;19936;-70
2023/08/23 01:35:59;;;;;;;;;;;20.30;80.80;;;;;;4991110;28;19933;-69
2023/08/23 01:38:26;;;;;;;;;;;20.40;80.70;;;;;;4990637;28;19934;-69
2023/08/23 01:40:55;;;;;;;;;;;20.30;80.50;;;;;;4990539;28;20037;-69
2023/08/23 01:43:24;;;;;;;;;;;20.30;80.50;;;;;;4992259;28;20613;-69
2023/08/23 01:45:50;;;;;;;;;;;20.20;80.70;;;;;;4991003;28;19926;-68
2023/08/23 01:48:17;;;;;;;;;;;20.20;80.60;;;;;;4990923;28;19976;-69
2023/08/23 01:50:44;;;;;;;;;;;20.20;80.70;;;;;;4990899;28;19946;-69
2023/08/23 01:53:11;;;;;;;;;;;20.20;80.80;;;;;;4990394;28;19944;-69
2023/08/23 01:55:38;;;;;;;;;;;20.20;80.80;;;;;;4991616;28;20440;-69
2023/08/23 01:58:09;;;;;;;;;;;20.10;80.90;;;;;;5006100;28;19945;-69
2023/08/23 02:00:36;;;;;;;;;;;20.10;80.90;;;;;;4991008;28;19926;-70
2023/08/23 02:03:03;;;;;;;;;;;20.00;81.00;;;;;;4989237;28;19926;-70
2023/08/23 02:05:30;;;;;;;;;;;20.00;81.10;;;;;;4990018;28;20386;-70
2023/08/23 02:07:59;;;;;;;;;;;20.00;81.10;;;;;;4991065;28;19977;-70
2023/08/23 02:10:26;;;;;;;;;;;20.00;81.10;;;;;;4992580;28;19936;-69
2023/08/23 02:12:53;;;;;;;;;;;19.90;81.20;;;;;;4990576;28;19929;-69
2023/08/23 02:15:21;;;;;;;;;;;19.90;81.30;;;;;;5005192;28;19953;-69
2023/08/23 02:17:48;;;;;;;;;;;19.90;81.30;;;;;;4990512;28;19957;-69
2023/08/23 02:20:15;;;;;;;;;;;19.80;81.30;;;;;;4990877;28;19926;-70
2023/08/23 02:22:42;;;;;;;;;;;19.80;81.30;;;;;;5006133;28;19925;-69
2023/08/23 02:25:09;;;;;;;;;;;19.80;81.30;;;;;;4990377;28;19937;-69
2023/08/23 02:27:36;;;;;;;;;;;19.80;81.20;;;;;;4988014;28;19933;-68
2023/08/23 02:30:06;;;;;;;;;;;19.80;81.30;;;;;;4989421;28;19930;-69
2023/08/23 02:32:35;;;;;;;;;;;19.70;81.20;;;;;;4988297;28;21855;-69
2023/08/23 02:35:03;;;;;;;;;;;19.70;81.30;;;;;;4982472;28;19952;-69
2023/08/23 02:37:30;;;;;;;;;;;19.70;81.30;;;;;;4991711;28;19973;-69
2023/08/23 02:39:57;;;;;;;;;;;19.60;81.30;;;;;;4989641;28;19949;-69
2023/08/23 02:42:24;;;;;;;;;;;19.60;81.30;;;;;;4989336;28;19930;-69
2023/08/23 02:44:51;;;;;;;;;;;19.60;81.30;;;;;;4971321;28;20021;-70
2023/08/23 02:47:18;;;;;;;;;;;19.60;81.30;;;;;;4978459;28;19930;-69
2023/08/23 02:49:46;;;;;;;;;;;19.60;81.30;;;;;;4990498;28;20457;-69
2023/08/23 02:52:13;;;;;;;;;;;19.60;81.20;;;;;;4990723;28;20374;-68
2023/08/23 02:54:40;;;;;;;;;;;19.60;81.30;;;;;;4989889;28;20381;-70
2023/08/23 02:57:07;;;;;;;;;;;19.60;81.30;;;;;;4989768;28;19934;-69
2023/08/23 02:59:33;;;;;;;;;;;19.50;81.30;;;;;;4978613;28;19930;-69
2023/08/23 03:02:00;;;;;;;;;;;19.40;81.40;;;;;;4978806;28;19943;-69
2023/08/23 03:04:27;;;;;;;;;;;19.40;81.40;;;;;;4990477;28;20411;-70
2023/08/23 03:06:56;;;;;;;;;;;19.40;81.30;;;;;;4988894;28;19930;-70
2023/08/23 03:09:22;;;;;;;;;;;19.40;81.40;;;;;;4977373;28;20385;-71
2023/08/23 03:11:49;;;;;;;;;;;19.40;81.50;;;;;;4988197;28;19937;-68
2023/08/23 03:14:16;;;;;;;;;;;19.30;81.50;;;;;;4988609;28;20004;-70
2023/08/23 03:16:44;;;;;;;;;;;19.40;81.40;;;;;;4989329;28;19996;-69
2023/08/23 03:19:11;;;;;;;;;;;19.40;81.30;;;;;;4989315;28;19938;-69
2023/08/23 03:21:38;;;;;;;;;;;19.40;81.30;;;;;;4985475;28;19964;-70
2023/08/23 03:24:07;;;;;;;;;;;19.40;81.30;;;;;;4989180;28;20364;-69
2023/08/23 03:26:33;;;;;;;;;;;19.40;81.10;;;;;;4988848;28;20016;-69
2023/08/23 03:29:00;;;;;;;;;;;19.40;80.90;;;;;;4990492;28;20005;-69
2023/08/23 03:31:27;;;;;;;;;;;19.30;81.10;;;;;;4979584;28;19929;-75
2023/08/23 03:33:55;;;;;;;;;;;19.20;81.30;;;;;;4989089;28;19933;-75
2023/08/23 03:36:21;;;;;;;;;;;19.30;81.20;;;;;;4989975;28;20020;-76
2023/08/23 03:38:48;;;;;;;;;;;19.30;81.20;;;;;;4979031;28;20401;-75
2023/08/23 03:41:17;;;;;;;;;;;19.20;81.30;;;;;;4977756;28;21391;-76
2023/08/23 03:43:44;;;;;;;;;;;19.20;81.30;;;;;;4988301;28;19961;-75
2023/08/23 03:46:11;;;;;;;;;;;19.10;81.40;;;;;;4983107;28;19926;-75
2023/08/23 03:48:37;;;;;;;;;;;19.10;81.50;;;;;;4988087;28;20019;-76
2023/08/23 03:51:04;;;;;;;;;;;19.10;81.60;;;;;;5004233;28;20419;-77
2023/08/23 03:53:31;;;;;;;;;;;19.10;81.60;;;;;;4989255;28;19926;-77
2023/08/23 03:55:59;;;;;;;;;;;19.10;81.70;;;;;;4990015;28;19925;-76
2023/08/23 03:58:27;;;;;;;;;;;19.10;81.70;;;;;;4990637;28;19926;-76
2023/08/23 04:00:54;;;;;;;;;;;19.00;81.60;;;;;;4988303;28;19929;-76
2023/08/23 04:03:22;;;;;;;;;;;19.10;81.50;;;;;;4987202;28;19930;-76
2023/08/23 04:05:49;;;;;;;;;;;19.00;81.50;;;;;;4988708;28;19930;-75
2023/08/23 04:08:16;;;;;;;;;;;19.00;81.70;;;;;;4990236;28;19930;-76
2023/08/23 04:10:46;;;;;;;;;;;18.90;81.80;;;;;;4989762;28;19958;-78
2023/08/23 04:13:13;;;;;;;;;;;18.90;81.90;;;;;;4989446;28;20029;-78
2023/08/23 04:15:43;;;;;;;;;;;18.90;82.00;;;;;;5004530;28;19933;-78
2023/08/23 04:18:09;;;;;;;;;;;18.90;82.00;;;;;;4989994;28;19938;-76
2023/08/23 04:20:37;;;;;;;;;;;18.90;82.10;;;;;;4990193;28;19930;-77
2023/08/23 04:23:04;;;;;;;;;;;18.80;82.10;;;;;;4990880;28;19934;-77
2023/08/23 04:25:32;;;;;;;;;;;18.90;81.90;;;;;;5006077;28;19996;-78
2023/08/23 04:27:58;;;;;;;;;;;18.90;81.80;;;;;;4988540;28;19944;-76
2023/08/23 04:30:26;;;;;;;;;;;18.90;81.70;;;;;;4988755;28;19988;-75
2023/08/23 04:32:57;;;;;;;;;;;19.00;81.40;;;;;;4988581;28;19933;-75
2023/08/23 04:35:24;;;;;;;;;;;18.90;81.40;;;;;;4990308;28;20537;-75
2023/08/23 04:37:51;;;;;;;;;;;19.00;81.20;;;;;;4990395;28;20005;-75
2023/08/23 04:40:19;;;;;;;;;;;19.00;81.20;;;;;;4988134;28;19984;-71
2023/08/23 04:42:46;;;;;;;;;;;19.00;81.20;;;;;;4988177;28;19980;-71
2023/08/23 04:45:13;;;;;;;;;;;18.90;81.40;;;;;;4990710;28;19992;-72
2023/08/23 04:47:40;;;;;;;;;;;18.90;81.50;;;;;;4992146;28;19972;-72
2023/08/23 04:50:09;;;;;;;;;;;18.80;81.70;;;;;;4991893;28;19926;-71
2023/08/23 04:52:36;;;;;;;;;;;18.80;81.90;;;;;;4991329;28;19938;-69
2023/08/23 04:55:03;;;;;;;;;;;18.80;82.00;;;;;;5007518;28;20028;-71
2023/08/23 04:57:30;;;;;;;;;;;18.80;82.10;;;;;;4990678;28;19965;-71
2023/08/23 04:59:58;;;;;;;;;;;18.70;82.20;;;;;;4991423;28;19965;-72
2023/08/23 05:02:25;;;;;;;;;;;18.80;81.90;;;;;;4992357;28;19934;-72
2023/08/23 05:04:54;;;;;;;;;;;18.80;82.00;;;;;;4972557;28;19934;-71
2023/08/23 05:07:22;;;;;;;;;;;18.80;82.10;;;;;;4970684;28;19936;-73
2023/08/23 05:09:49;;;;;;;;;;;18.80;82.10;;;;;;4962392;28;19926;-71
2023/08/23 05:12:17;;;;;;;;;;;18.90;81.80;;;;;;4986892;28;19958;-72
2023/08/23 05:14:45;;;;;;;;;;;18.90;81.80;;;;;;4990319;28;19984;-72
2023/08/23 05:17:12;;;;;;;;;;;18.90;81.80;;;;;;5007583;28;19930;-71
2023/08/23 05:19:39;;;;;;;;;;;18.80;82.00;;;;;;5007202;28;19930;-70
2023/08/23 05:22:06;;;;;;;;;;;18.90;81.90;;;;;;4991686;28;19929;-71
2023/08/23 05:24:35;;;;;;;;;;;19.00;81.50;;;;;;4990952;28;19938;-71
2023/08/23 05:27:02;;;;;;;;;;;19.00;81.40;;;;;;4989955;28;19946;-72
2023/08/23 05:29:28;;;;;;;;;;;19.00;81.20;;;;;;4992285;28;19934;-70
2023/08/23 05:31:56;;;;;;;;;;;19.00;81.10;;;;;;4972218;28;19980;-72
2023/08/23 05:34:23;;;;;;;;;;;19.10;81.00;;;;;;4986319;28;19944;-72
2023/08/23 05:36:50;;;;;;;;;;;19.00;81.20;;;;;;4988710;28;20390;-70
2023/08/23 05:39:17;;;;;;;;;;;19.00;81.40;;;;;;4990495;28;19930;-72
2023/08/23 05:41:46;;;;;;;;;;;19.10;81.30;;;;;;4968577;28;19926;-72
2023/08/23 05:44:12;;;;;;;;;;;19.00;81.50;;;;;;4992187;28;20015;-72
2023/08/23 05:46:38;;;;;;;;;;;19.00;81.60;;;;;;4991128;28;20385;-70
2023/08/23 05:49:06;;;;;;;;;;;19.10;81.50;;;;;;5004963;28;19932;-71
2023/08/23 05:51:32;;;;;;;;;;;19.10;81.60;;;;;;4991347;28;19929;-71
2023/08/23 05:53:59;;;;;;;;;;;19.10;81.60;;;;;;4990373;28;20041;-71
2023/08/23 05:56:26;;;;;;;;;;;19.10;81.30;;;;;;4991140;28;19934;-71
2023/08/23 05:58:55;;;;;;;;;;;19.20;81.40;;;;;;4992182;28;19929;-71
2023/08/23 06:01:22;;;;;;;;;;;19.20;81.40;;;;;;4991030;28;19930;-71
2023/08/23 06:03:56;;;;;;;;;;;19.20;81.50;;;;;;4989588;28;19930;-71
2023/08/23 06:06:33;;;;;;;;;;;19.10;81.60;;;;;;4989157;28;20033;-72
2023/08/23 06:09:02;;;;;;;;;;;19.20;81.30;;;;;;4991303;28;19926;-71
2023/08/23 06:11:32;;;;;;;;;;;19.20;81.50;;;;;;4991284;28;20378;-71
2023/08/23 06:14:24;;;;;;;;;;;19.20;81.60;;;;;;4992139;28;19930;-71
2023/08/23 06:17:06;;;;;;;;;;;19.20;81.60;;;;;;4990849;28;20419;-72
2023/08/23 06:19:44;;;;;;;;;;;19.30;81.50;;;;;;4990806;28;20402;-71
2023/08/23 06:22:21;;;;;;;;;;;19.40;81.40;;;;;;4990122;28;20010;-69
2023/08/23 06:24:59;;;;;;;;;;;19.40;81.40;;;;;;4989736;28;19933;-71
2023/08/23 06:27:29;;;;;;;;;;;19.50;81.40;;;;;;4990265;28;20020;-72
2023/08/23 06:29:57;;;;;;;;;;;19.50;81.50;;;;;;4989924;28;19933;-71
2023/08/23 06:32:25;;;;;;;;;;;19.60;81.40;;;;;;4990339;28;19933;-72
2023/08/23 06:34:53;;;;;;;;;;;19.70;81.30;;;;;;4991298;28;20048;-71
2023/08/23 06:37:21;;;;;;;;;;;19.70;81.30;;;;;;4990253;28;20045;-71
2023/08/23 06:39:48;;;;;;;;;;;19.80;81.20;;;;;;4989567;28;19940;-71
2023/08/23 06:42:15;;;;;;;;;;;19.80;81.10;;;;;;4989525;28;19992;-71
2023/08/23 06:44:42;;;;;;;;;;;20.00;81.20;;;;;;4990696;28;19926;-70
2023/08/23 06:47:10;;;;;;;;;;;20.10;80.80;;;;;;4990742;28;20390;-72
2023/08/23 06:49:37;;;;;;;;;;;20.20;80.50;;;;;;4990079;28;20267;-72
2023/08/23 06:52:04;;;;;;;;;;;20.20;80.20;;;;;;4990527;28;19940;-72
2023/08/23 06:54:31;;;;;;;;;;;20.40;80.20;;;;;;4990500;28;19929;-72
2023/08/23 06:56:58;;;;;;;;;;;20.60;79.40;;;;;;4989792;28;19971;-72
2023/08/23 06:59:25;;;;;;;;;;;20.70;79.50;;;;;;4990445;28;19953;-72
2023/08/23 07:01:52;;;;;;;;;;;20.90;79.20;;;;;;4990094;28;21108;-72
2023/08/23 07:04:21;;;;;;;;;;;21.10;79.00;;;;;;4989693;28;19932;-74
2023/08/23 07:06:48;;;;;;;;;;;21.20;78.70;;;;;;4989223;28;20017;-73
2023/08/23 07:09:15;;;;;;;;;;;21.30;78.70;;;;;;4990421;28;19936;-72
2023/08/23 07:11:42;;;;;;;;;;;21.40;78.70;;;;;;4990051;28;20033;-74
2023/08/23 07:14:10;;;;;;;;;;;21.50;78.50;;;;;;4990737;28;19938;-73
2023/08/23 07:16:37;;;;;;;;;;;21.60;78.40;;;;;;4985609;28;19926;-72
2023/08/23 07:19:04;;;;;;;;;;;21.60;78.00;;;;;;4989380;28;20229;-72
2023/08/23 07:21:32;;;;;;;;;;;21.60;78.00;;;;;;4989209;28;20020;-72
2023/08/23 07:23:59;;;;;;;;;;;21.80;77.70;;;;;;4989621;28;20024;-73
2023/08/23 07:26:26;;;;;;;;;;;22.00;77.70;;;;;;4988521;28;19932;-71
2023/08/23 07:28:53;;;;;;;;;;;22.10;77.70;;;;;;4989644;28;20019;-72
2023/08/23 07:31:20;;;;;;;;;;;22.10;77.40;;;;;;4988530;28;20008;-72
2023/08/23 07:33:47;;;;;;;;;;;22.30;77.30;;;;;;4989250;28;19932;-73
2023/08/23 07:36:15;;;;;;;;;;;22.60;76.60;;;;;;4988643;28;20024;-74
2023/08/23 07:38:43;;;;;;;;;;;22.70;76.10;;;;;;4988897;28;20732;-72
2023/08/23 07:41:10;;;;;;;;;;;22.80;76.40;;;;;;4990454;28;19949;-73
2023/08/23 07:43:38;;;;;;;;;;;22.90;76.20;;;;;;4988595;28;19936;-72
2023/08/23 07:46:07;;;;;;;;;;;23.00;75.40;;;;;;4988265;28;19933;-72
2023/08/23 07:48:34;;;;;;;;;;;23.10;75.60;;;;;;4988228;28;19956;-73
2023/08/23 07:51:01;;;;;;;;;;;23.20;74.90;;;;;;4989487;28;20016;-72
2023/08/23 07:53:30;;;;;;;;;;;23.40;73.80;;;;;;4988603;28;19948;-73
2023/08/23 07:55:58;;;;;;;;;;;23.60;73.30;;;;;;5004109;28;20072;-72
2023/08/23 07:58:25;;;;;;;;;;;23.70;72.70;;;;;;4988043;28;20439;-72
2023/08/23 08:00:52;;;;;;;;;;;23.70;72.70;;;;;;4989199;28;19930;-72
2023/08/23 08:03:19;;;;;;;;;;;23.70;72.40;;;;;;4987624;28;19926;-73
2023/08/23 08:05:47;;;;;;;;;;;23.90;72.40;;;;;;4988928;28;20770;-71
2023/08/23 08:08:14;;;;;;;;;;;24.00;72.40;;;;;;4988166;28;20537;-72
2023/08/23 08:10:41;;;;;;;;;;;24.00;72.00;;;;;;4987324;28;19948;-71
2023/08/23 08:13:09;;;;;;;;;;;24.30;71.60;;;;;;4987705;28;19933;-72
2023/08/23 08:15:36;;;;;;;;;;;24.40;71.40;;;;;;4988158;28;19929;-72
2023/08/23 08:18:03;;;;;;;;;;;24.60;71.00;;;;;;4986492;28;19930;-73
2023/08/23 08:20:30;;;;;;;;;;;24.60;70.90;;;;;;4992175;28;19951;-72
2023/08/23 08:22:57;;;;;;;;;;;24.70;71.20;;;;;;4992444;28;19937;-72
2023/08/23 08:25:24;;;;;;;;;;;24.80;70.60;;;;;;4991986;28;20028;-72
2023/08/23 08:27:51;;;;;;;;;;;24.90;70.20;;;;;;4992041;28;20017;-72
2023/08/23 08:30:19;;;;;;;;;;;25.10;69.70;;;;;;4991349;28;19936;-72
2023/08/23 08:32:47;;;;;;;;;;;25.20;69.20;;;;;;4992958;28;19957;-71
2023/08/23 08:35:14;;;;;;;;;;;25.20;69.60;;;;;;4993408;28;19972;-72
2023/08/23 08:37:41;;;;;;;;;;;25.30;68.70;;;;;;4990404;28;20401;-73
2023/08/23 08:40:08;;;;;;;;;;;25.40;68.80;;;;;;4992050;28;19930;-72
2023/08/23 08:42:35;;;;;;;;;;;25.40;68.30;;;;;;4991597;28;19974;-73
2023/08/23 08:45:03;;;;;;;;;;;25.60;68.10;;;;;;4991631;28;20396;-70
2023/08/23 08:47:31;;;;;;;;;;;25.60;67.90;;;;;;4992655;28;19961;-72
2023/08/23 08:49:58;;;;;;;;;;;25.60;68.10;;;;;;4990234;28;19934;-73
2023/08/23 08:52:26;;;;;;;;;;;25.90;66.50;;;;;;4992730;28;19930;-72
2023/08/23 08:54:54;;;;;;;;;;;26.10;65.90;;;;;;4991932;28;19925;-72
2023/08/23 08:57:22;;;;;;;;;;;26.00;65.70;;;;;;4991874;28;20057;-72
2023/08/23 08:59:50;;;;;;;;;;;26.10;65.50;;;;;;4992654;28;19932;-70
2023/08/23 09:02:18;;;;;;;;;;;26.30;65.50;;;;;;4991459;28;19925;-70
2023/08/23 09:04:47;;;;;;;;;;;26.40;65.80;;;;;;4991073;28;19941;-71
2023/08/23 09:07:15;;;;;;;;;;;26.30;65.40;;;;;;4992372;28;19930;-72
2023/08/23 09:09:42;;;;;;;;;;;26.30;64.40;;;;;;4991176;28;20502;-73
2023/08/23 09:12:09;;;;;;;;;;;26.50;63.90;;;;;;4992003;28;19989;-72
2023/08/23 09:14:36;;;;;;;;;;;26.60;63.30;;;;;;4991987;28;19933;-72
2023/08/23 09:17:03;;;;;;;;;;;26.90;62.80;;;;;;4992125;28;19930;-73
2023/08/23 09:19:30;;;;;;;;;;;27.00;62.60;;;;;;4990466;28;19926;-73
2023/08/23 09:21:59;;;;;;;;;;;27.10;62.40;;;;;;4991561;28;20818;-70
2023/08/23 09:24:26;;;;;;;;;;;27.10;62.90;;;;;;5005952;28;20337;-69
2023/08/23 09:26:53;;;;;;;;;;;27.20;63.00;;;;;;4992351;28;19926;-71
2023/08/23 09:29:20;;;;;;;;;;;27.30;61.90;;;;;;4990231;28;20270;-69
2023/08/23 09:31:47;;;;;;;;;;;27.20;62.10;;;;;;4989898;28;20289;-71
2023/08/23 09:34:15;;;;;;;;;;;27.30;62.10;;;;;;4990740;28;19937;-70
2023/08/23 09:36:42;;;;;;;;;;;27.40;62.10;;;;;;4991666;28;19934;-69
2023/08/23 09:39:11;;;;;;;;;;;27.50;61.70;;;;;;4986137;28;19934;-70
2023/08/23 09:41:41;;;;;;;;;;;27.60;61.60;;;;;;4987855;28;20227;-69
2023/08/23 09:44:08;;;;;;;;;;;27.80;61.00;;;;;;4991097;28;20457;-70
2023/08/23 09:46:36;;;;;;;;;;;27.70;60.60;;;;;;4991764;28;19940;-70
2023/08/23 09:49:04;;;;;;;;;;;27.90;60.10;;;;;;4989579;28;19925;-69
2023/08/23 09:51:35;;;;;;;;;;;28.10;59.60;;;;;;4991013;28;20397;-70
2023/08/23 09:54:06;;;;;;;;;;;28.00;59.60;;;;;;4991246;28;19941;-71
2023/08/23 09:56:36;;;;;;;;;;;28.10;58.50;;;;;;4992575;28;20059;-70
2023/08/23 09:59:12;;;;;;;;;;;28.10;58.50;;;;;;4989539;28;19926;-71
2023/08/23 10:01:41;;;;;;;;;;;28.20;58.50;;;;;;4972732;28;19932;-70
2023/08/23 10:04:08;;;;;;;;;;;28.30;58.20;;;;;;4989813;28;19995;-69
2023/08/23 10:06:35;;;;;;;;;;;28.40;58.30;;;;;;4990226;28;19980;-70
2023/08/23 10:09:03;;;;;;;;;;;28.40;58.20;;;;;;4992072;28;20017;-70
2023/08/23 10:11:31;;;;;;;;;;;28.50;58.40;;;;;;4991867;28;19957;-70
2023/08/23 10:14:00;;;;;;;;;;;28.50;58.60;;;;;;4990589;28;19932;-69
2023/08/23 10:16:27;;;;;;;;;;;28.60;57.30;;;;;;4990087;28;19948;-69
2023/08/23 10:18:55;;;;;;;;;;;28.70;57.70;;;;;;4983346;28;20558;-69
2023/08/23 10:21:22;;;;;;;;;;;28.80;57.30;;;;;;4981772;28;19989;-68
2023/08/23 10:23:49;;;;;;;;;;;28.90;56.90;;;;;;4981483;28;19985;-69
2023/08/23 10:26:21;;;;;;;;;;;28.90;56.50;;;;;;4990004;28;19965;-69
2023/08/23 10:28:48;;;;;;;;;;;29.00;56.70;;;;;;4990166;28;19949;-69
2023/08/23 10:31:21;;;;;;;;;;;29.10;56.30;;;;;;4988107;28;19941;-67
2023/08/23 10:33:54;;;;;;;;;;;29.00;56.00;;;;;;4989685;28;20005;-67
2023/08/23 10:36:27;;;;;;;;;;;29.00;56.50;;;;;;4989842;28;19932;-66
2023/08/23 10:38:55;;;;;;;;;;;29.00;56.30;;;;;;4994503;28;19926;-66
2023/08/23 10:41:22;;;;;;;;;;;29.00;56.40;;;;;;4990487;28;19934;-74
2023/08/23 10:43:49;;;;;;;;;;;29.00;56.90;;;;;;4990653;28;19932;-74
2023/08/23 10:46:18;;;;;;;;;;;29.10;56.10;;;;;;4989910;28;20344;-75
2023/08/23 10:48:45;;;;;;;;;;;29.10;55.20;;;;;;4989916;28;20028;-75
2023/08/23 10:51:13;;;;;;;;;;;29.10;54.10;;;;;;4989845;28;20021;-75
2023/08/23 10:53:40;;;;;;;;;;;29.30;54.00;;;;;;4990765;28;19933;-75
2023/08/23 10:56:08;;;;;;;;;;;29.30;53.60;;;;;;4989396;28;20036;-75
2023/08/23 10:58:36;;;;;;;;;;;29.40;53.50;;;;;;4989117;28;20028;-75
2023/08/23 11:01:03;;;;;;;;;;;29.40;53.20;;;;;;4990215;28;19934;-76
2023/08/23 11:03:32;;;;;;;;;;;29.50;51.80;;;;;;4989854;28;19934;-75
2023/08/23 11:05:59;;;;;;;;;;;29.50;51.50;;;;;;4990673;28;19966;-74
2023/08/23 11:08:26;;;;;;;;;;;29.60;51.90;;;;;;4988976;28;19968;-74
2023/08/23 11:10:53;;;;;;;;;;;29.50;51.60;;;;;;4989764;28;19930;-75
2023/08/23 11:13:20;;;;;;;;;;;29.60;51.10;;;;;;4988544;28;19992;-75
2023/08/23 11:15:47;;;;;;;;;;;29.60;51.20;;;;;;4989329;28;19930;-75
2023/08/23 11:18:14;;;;;;;;;;;29.60;50.80;;;;;;4990565;28;20669;-74
2023/08/23 11:20:43;;;;;;;;;;;29.70;51.30;;;;;;4990762;28;19933;-75
2023/08/23 11:23:10;;;;;;;;;;;29.60;50.20;;;;;;4988641;28;20348;-75
2023/08/23 11:25:37;;;;;;;;;;;29.70;50.60;;;;;;4989485;28;19933;-75
2023/08/23 11:28:05;;;;;;;;;;;29.80;51.60;;;;;;4988276;28;19934;-75
2023/08/23 11:30:32;;;;;;;;;;;29.80;51.60;;;;;;4989491;28;19930;-74
2023/08/23 11:32:59;;;;;;;;;;;29.60;50.60;;;;;;4990200;28;19948;-77
2023/08/23 11:35:27;;;;;;;;;;;29.60;50.50;;;;;;4988742;28;20377;-74
2023/08/23 11:37:57;;;;;;;;;;;29.70;50.30;;;;;;4988933;28;19933;-75
2023/08/23 11:40:24;;;;;;;;;;;29.80;49.50;;;;;;4989166;28;19960;-76
2023/08/23 11:42:53;;;;;;;;;;;29.80;50.10;;;;;;4989557;28;19933;-75
2023/08/23 11:45:20;;;;;;;;;;;29.80;49.90;;;;;;4990523;28;19929;-74
2023/08/23 11:47:51;;;;;;;;;;;29.80;51.00;;;;;;4990184;28;19939;-76
2023/08/23 11:50:19;;;;;;;;;;;29.70;50.40;;;;;;4989255;28;19926;-70
2023/08/23 11:52:47;;;;;;;;;;;29.80;49.90;;;;;;4987961;28;20409;-69
2023/08/23 11:55:22;;;;;;;;;;;29.80;50.10;;;;;;4986670;28;19977;-68
2023/08/23 11:57:53;;;;;;;;;;;29.90;50.20;;;;;;4983614;28;19926;-69
2023/08/23 12:00:21;;;;;;;;;;;29.80;50.50;;;;;;4990213;28;19930;-69
2023/08/23 12:02:48;;;;;;;;;;;29.70;50.90;;;;;;4985255;28;20456;-70
2023/08/23 12:05:15;;;;;;;;;;;29.70;50.90;;;;;;4987458;28;19926;-71
2023/08/23 12:07:42;;;;;;;;;;;29.80;50.50;;;;;;4988188;28;19981;-70
2023/08/23 12:10:11;;;;;;;;;;;29.80;51.10;;;;;;4988994;28;19937;-70
2023/08/23 12:12:39;;;;;;;;;;;29.90;51.10;;;;;;4988736;28;19948;-68
2023/08/23 12:15:07;;;;;;;;;;;29.90;51.20;;;;;;4987751;28;20025;-70
2023/08/23 12:17:34;;;;;;;;;;;29.90;51.00;;;;;;4989126;28;19968;-69
2023/08/23 12:20:04;;;;;;;;;;;29.90;50.90;;;;;;4988635;28;20381;-69
2023/08/23 12:22:31;;;;;;;;;;;29.90;50.00;;;;;;4989046;28;19926;-69
2023/08/23 12:24:58;;;;;;;;;;;30.00;50.70;;;;;;4986953;28;20021;-69
2023/08/23 12:27:25;;;;;;;;;;;29.90;50.50;;;;;;4989914;28;20325;-69
2023/08/23 12:29:53;;;;;;;;;;;29.70;50.70;;;;;;4989202;28;20016;-70
2023/08/23 12:32:21;;;;;;;;;;;29.60;49.50;;;;;;4987703;28;19930;-70
2023/08/23 12:34:48;;;;;;;;;;;29.60;50.20;;;;;;4987359;28;19934;-70
2023/08/23 12:37:15;;;;;;;;;;;29.60;50.70;;;;;;4988244;28;20017;-68
2023/08/23 12:39:42;;;;;;;;;;;29.60;51.00;;;;;;4988981;28;19932;-69
2023/08/23 12:42:09;;;;;;;;;;;29.60;50.60;;;;;;4990078;28;19988;-70
2023/08/23 12:44:37;;;;;;;;;;;29.60;50.70;;;;;;4988284;28;19980;-67
2023/08/23 12:47:06;;;;;;;;;;;29.50;50.90;;;;;;4987487;28;20404;-68
2023/08/23 12:49:33;;;;;;;;;;;29.40;50.60;;;;;;4989296;28;19949;-70
2023/08/23 12:52:00;;;;;;;;;;;29.40;51.70;;;;;;4988861;28;19926;-71
2023/08/23 12:54:28;;;;;;;;;;;29.30;51.50;;;;;;4989562;28;19977;-70
2023/08/23 12:56:56;;;;;;;;;;;29.30;51.80;;;;;;4987968;28;20015;-70
2023/08/23 12:59:23;;;;;;;;;;;29.40;51.20;;;;;;4987259;28;19925;-69
2023/08/23 13:01:50;;;;;;;;;;;29.50;51.00;;;;;;4985427;28;19930;-69
2023/08/23 13:04:18;;;;;;;;;;;29.50;49.80;;;;;;4988213;28;19959;-70
2023/08/23 13:06:46;;;;;;;;;;;29.50;49.10;;;;;;4992143;28;19953;-69
2023/08/23 13:09:13;;;;;;;;;;;29.50;49.20;;;;;;4992914;28;20504;-68
2023/08/23 13:11:41;;;;;;;;;;;29.60;47.70;;;;;;4991671;28;19937;-68
2023/08/23 13:14:08;;;;;;;;;;;29.50;47.90;;;;;;4991739;28;19930;-67
2023/08/23 13:16:35;;;;;;;;;;;29.40;49.40;;;;;;4989904;28;19933;-69
2023/08/23 13:19:02;;;;;;;;;;;29.30;49.10;;;;;;5006881;28;19932;-71
2023/08/23 13:21:30;;;;;;;;;;;29.30;49.10;;;;;;4992495;28;19930;-69
2023/08/23 13:23:59;;;;;;;;;;;29.30;49.60;;;;;;4991375;28;20446;-69
2023/08/23 13:26:26;;;;;;;;;;;29.30;48.90;;;;;;4990699;28;19957;-68
2023/08/23 13:28:53;;;;;;;;;;;29.30;47.50;;;;;;4990790;28;19933;-69
2023/08/23 13:31:19;;;;;;;;;;;29.20;47.80;;;;;;4990869;28;19962;-69
2023/08/23 13:33:46;;;;;;;;;;;29.10;47.70;;;;;;4990888;28;19945;-68
2023/08/23 13:36:13;;;;;;;;;;;29.10;48.10;;;;;;4991880;28;20008;-70
2023/08/23 13:38:42;;;;;;;;;;;29.10;47.90;;;;;;4990126;28;19933;-70
2023/08/23 13:41:09;;;;;;;;;;;29.00;48.00;;;;;;4990454;28;19937;-71
2023/08/23 13:43:36;;;;;;;;;;;29.00;47.90;;;;;;4990677;28;19930;-69
2023/08/23 13:46:04;;;;;;;;;;;29.00;48.00;;;;;;4991486;28;19930;-69
2023/08/23 13:48:30;;;;;;;;;;;28.90;46.90;;;;;;4990678;28;19981;-70
2023/08/23 13:50:57;;;;;;;;;;;28.90;47.10;;;;;;4990541;28;20316;-69
2023/08/23 13:53:25;;;;;;;;;;;28.80;49.20;;;;;;4989732;28;19933;-70
2023/08/23 13:55:53;;;;;;;;;;;28.60;50.20;;;;;;4989662;28;20331;-70
2023/08/23 13:58:20;;;;;;;;;;;28.60;49.80;;;;;;4990670;28;19930;-68
2023/08/23 14:00:47;;;;;;;;;;;28.50;49.80;;;;;;4990438;28;19930;-68
2023/08/23 14:03:14;;;;;;;;;;;28.50;50.10;;;;;;4990107;28;19957;-68
2023/08/23 14:05:41;;;;;;;;;;;28.50;50.00;;;;;;4991477;28;19933;-68
2023/08/23 14:08:09;;;;;;;;;;;28.60;49.50;;;;;;4989819;28;19926;-69
2023/08/23 14:10:39;;;;;;;;;;;28.50;49.80;;;;;;4990948;28;20006;-72
2023/08/23 14:13:07;;;;;;;;;;;28.50;49.10;;;;;;4989981;28;20008;-74
2023/08/23 14:15:35;;;;;;;;;;;28.50;49.30;;;;;;4991062;28;19988;-73
2023/08/23 14:18:02;;;;;;;;;;;28.50;48.30;;;;;;4990029;28;20019;-72
2023/08/23 14:20:29;;;;;;;;;;;28.40;49.00;;;;;;4991447;28;20060;-72